sensor_id;sensor_type;location;lat;lon;timestamp;P1;durP1;ratioP1;P2;durP2;ratioP2
20449;SDS011;10384;51.940;8.432;2023-08-30T00:00:46;9.20;;;4.83;;
20449;SDS011;10384;51.940;8.432;2023-08-30T00:03:13;7.87;;;5.07;;
20449;SDS011;10384;51.940;8.432;2023-08-30T00:05:39;9.10;;;5.47;;
20449;SDS011;10384;51.940;8.432;2023-08-30T00:08:05;9.73;;;5.13;;
20449;SDS011;10384;51.940;8.432;2023-08-30T00:10:31;10.43;;;5.17;;
20449;SDS011;10384;51.940;8.432;2023-08-30T00:12:57;7.97;;;5.10;;
20449;SDS011;10384;51.940;8.432;2023-08-30T00:15:23;10.93;;;5.50;;
20449;SDS011;10384;51.940;8.432;2023-08-30T00:17:49;8.43;;;4.90;;
20449;SDS011;10384;51.940;8.432;2023-08-30T00:20:19;8.20;;;5.03;;
20449;SDS011;10384;51.940;8.432;2023-08-30T00:22:45;8.50;;;5.10;;
20449;SDS011;10384;51.940;8.432;2023-08-30T00:25:11;8.77;;;5.57;;
20449;SDS011;10384;51.940;8.432;2023-08-30T00:27:37;10.60;;;4.90;;
20449;SDS011;10384;51.940;8.432;2023-08-30T00:30:03;8.87;;;4.60;;
20449;SDS011;10384;51.940;8.432;2023-08-30T00:32:29;9.27;;;5.50;;
20449;SDS011;10384;51.940;8.432;2023-08-30T00:34:56;9.40;;;5.07;;
20449;SDS011;10384;51.940;8.432;2023-08-30T00:37:21;8.77;;;5.37;;
20449;SDS011;10384;51.940;8.432;2023-08-30T00:39:47;8.57;;;5.10;;
20449;SDS011;10384;51.940;8.432;2023-08-30T00:42:13;10.50;;;4.97;;
20449;SDS011;10384;51.940;8.432;2023-08-30T00:44:39;7.57;;;5.03;;
20449;SDS011;10384;51.940;8.432;2023-08-30T00:47:06;7.37;;;4.73;;
20449;SDS011;10384;51.940;8.432;2023-08-30T00:49:32;8.60;;;5.23;;
20449;SDS011;10384;51.940;8.432;2023-08-30T00:51:58;8.77;;;4.80;;
20449;SDS011;10384;51.940;8.432;2023-08-30T00:54:26;7.00;;;5.03;;
20449;SDS011;10384;51.940;8.432;2023-08-30T00:56:51;8.93;;;5.13;;
20449;SDS011;10384;51.940;8.432;2023-08-30T00:59:18;7.83;;;4.70;;
20449;SDS011;10384;51.940;8.432;2023-08-30T01:01:44;8.10;;;5.10;;
20449;SDS011;10384;51.940;8.432;2023-08-30T01:04:11;8.10;;;4.60;;
20449;SDS011;10384;51.940;8.432;2023-08-30T01:06:37;7.53;;;4.73;;
20449;SDS011;10384;51.940;8.432;2023-08-30T01:09:03;6.83;;;4.60;;
20449;SDS011;10384;51.940;8.432;2023-08-30T01:11:36;8.13;;;4.77;;
20449;SDS011;10384;51.940;8.432;2023-08-30T01:14:09;9.17;;;4.93;;
20449;SDS011;10384;51.940;8.432;2023-08-30T01:16:36;7.67;;;5.47;;
20449;SDS011;10384;51.940;8.432;2023-08-30T01:19:04;8.93;;;5.07;;
20449;SDS011;10384;51.940;8.432;2023-08-30T01:21:38;9.43;;;4.90;;
20449;SDS011;10384;51.940;8.432;2023-08-30T01:24:10;10.10;;;5.50;;
20449;SDS011;10384;51.940;8.432;2023-08-30T01:29:16;9.40;;;5.00;;
20449;SDS011;10384;51.940;8.432;2023-08-30T01:31:43;10.23;;;5.17;;
20449;SDS011;10384;51.940;8.432;2023-08-30T01:34:10;10.10;;;4.80;;
20449;SDS011;10384;51.940;8.432;2023-08-30T01:36:38;9.23;;;4.63;;
20449;SDS011;10384;51.940;8.432;2023-08-30T01:39:07;7.70;;;4.77;;
20449;SDS011;10384;51.940;8.432;2023-08-30T01:41:34;6.80;;;4.40;;
20449;SDS011;10384;51.940;8.432;2023-08-30T01:44:01;7.70;;;4.80;;
20449;SDS011;10384;51.940;8.432;2023-08-30T01:46:28;8.30;;;5.00;;
20449;SDS011;10384;51.940;8.432;2023-08-30T01:48:54;9.50;;;5.30;;
20449;SDS011;10384;51.940;8.432;2023-08-30T01:51:21;9.70;;;4.73;;
20449;SDS011;10384;51.940;8.432;2023-08-30T01:53:48;9.13;;;5.10;;
20449;SDS011;10384;51.940;8.432;2023-08-30T01:56:14;8.20;;;4.80;;
20449;SDS011;10384;51.940;8.432;2023-08-30T01:58:40;7.40;;;4.57;;
20449;SDS011;10384;51.940;8.432;2023-08-30T02:01:06;8.37;;;5.07;;
20449;SDS011;10384;51.940;8.432;2023-08-30T02:03:33;8.10;;;5.10;;
20449;SDS011;10384;51.940;8.432;2023-08-30T02:06:04;7.70;;;4.83;;
20449;SDS011;10384;51.940;8.432;2023-08-30T02:08:54;8.97;;;4.73;;
20449;SDS011;10384;51.940;8.432;2023-08-30T02:11:19;7.60;;;4.90;;
20449;SDS011;10384;51.940;8.432;2023-08-30T02:13:45;8.90;;;4.93;;
20449;SDS011;10384;51.940;8.432;2023-08-30T02:16:11;7.90;;;4.77;;
20449;SDS011;10384;51.940;8.432;2023-08-30T02:18:38;8.50;;;4.60;;
20449;SDS011;10384;51.940;8.432;2023-08-30T02:21:05;11.20;;;5.80;;
20449;SDS011;10384;51.940;8.432;2023-08-30T02:23:31;8.80;;;5.43;;
20449;SDS011;10384;51.940;8.432;2023-08-30T02:25:57;9.57;;;5.00;;
20449;SDS011;10384;51.940;8.432;2023-08-30T02:28:23;10.23;;;5.10;;
20449;SDS011;10384;51.940;8.432;2023-08-30T02:30:52;10.00;;;5.37;;
20449;SDS011;10384;51.940;8.432;2023-08-30T02:33:18;9.77;;;5.20;;
20449;SDS011;10384;51.940;8.432;2023-08-30T02:35:44;8.40;;;5.23;;
20449;SDS011;10384;51.940;8.432;2023-08-30T02:38:10;8.03;;;4.77;;
20449;SDS011;10384;51.940;8.432;2023-08-30T02:40:36;10.80;;;4.83;;
20449;SDS011;10384;51.940;8.432;2023-08-30T02:43:03;8.73;;;4.80;;
20449;SDS011;10384;51.940;8.432;2023-08-30T02:45:29;7.23;;;4.83;;
20449;SDS011;10384;51.940;8.432;2023-08-30T02:47:55;10.17;;;4.87;;
20449;SDS011;10384;51.940;8.432;2023-08-30T02:50:22;8.10;;;5.13;;
20449;SDS011;10384;51.940;8.432;2023-08-30T02:52:48;11.60;;;5.03;;
20449;SDS011;10384;51.940;8.432;2023-08-30T02:55:14;8.00;;;5.10;;
20449;SDS011;10384;51.940;8.432;2023-08-30T02:57:40;9.60;;;5.03;;
20449;SDS011;10384;51.940;8.432;2023-08-30T03:00:06;8.73;;;5.00;;
20449;SDS011;10384;51.940;8.432;2023-08-30T03:02:33;10.07;;;5.07;;
20449;SDS011;10384;51.940;8.432;2023-08-30T03:04:59;8.00;;;5.00;;
20449;SDS011;10384;51.940;8.432;2023-08-30T03:07:25;8.93;;;4.43;;
20449;SDS011;10384;51.940;8.432;2023-08-30T03:09:54;7.27;;;4.90;;
20449;SDS011;10384;51.940;8.432;2023-08-30T03:12:20;8.03;;;5.10;;
20449;SDS011;10384;51.940;8.432;2023-08-30T03:14:46;7.77;;;4.50;;
20449;SDS011;10384;51.940;8.432;2023-08-30T03:17:12;7.83;;;4.83;;
20449;SDS011;10384;51.940;8.432;2023-08-30T03:19:38;8.10;;;5.40;;
20449;SDS011;10384;51.940;8.432;2023-08-30T03:22:04;9.03;;;4.77;;
20449;SDS011;10384;51.940;8.432;2023-08-30T03:24:30;9.20;;;4.47;;
20449;SDS011;10384;51.940;8.432;2023-08-30T03:26:56;8.53;;;4.57;;
20449;SDS011;10384;51.940;8.432;2023-08-30T03:29:22;10.93;;;5.50;;
20449;SDS011;10384;51.940;8.432;2023-08-30T03:31:48;11.73;;;5.23;;
20449;SDS011;10384;51.940;8.432;2023-08-30T03:34:14;9.53;;;4.63;;
20449;SDS011;10384;51.940;8.432;2023-08-30T03:36:40;8.23;;;4.60;;
20449;SDS011;10384;51.940;8.432;2023-08-30T03:39:09;8.23;;;5.13;;
20449;SDS011;10384;51.940;8.432;2023-08-30T03:41:35;7.73;;;4.67;;
20449;SDS011;10384;51.940;8.432;2023-08-30T03:44:01;8.27;;;5.00;;
20449;SDS011;10384;51.940;8.432;2023-08-30T03:46:27;8.33;;;4.83;;
20449;SDS011;10384;51.940;8.432;2023-08-30T03:48:53;8.63;;;5.30;;
20449;SDS011;10384;51.940;8.432;2023-08-30T03:51:19;7.60;;;4.67;;
20449;SDS011;10384;51.940;8.432;2023-08-30T03:53:45;8.60;;;4.33;;
20449;SDS011;10384;51.940;8.432;2023-08-30T03:56:11;7.83;;;4.90;;
20449;SDS011;10384;51.940;8.432;2023-08-30T03:58:37;9.80;;;5.70;;
20449;SDS011;10384;51.940;8.432;2023-08-30T04:01:03;11.43;;;6.37;;
20449;SDS011;10384;51.940;8.432;2023-08-30T04:03:29;11.67;;;6.67;;
20449;SDS011;10384;51.940;8.432;2023-08-30T04:05:55;11.47;;;6.90;;
20449;SDS011;10384;51.940;8.432;2023-08-30T04:08:21;11.30;;;6.33;;
20449;SDS011;10384;51.940;8.432;2023-08-30T04:10:47;11.47;;;6.50;;
20449;SDS011;10384;51.940;8.432;2023-08-30T04:13:14;9.33;;;6.07;;
20449;SDS011;10384;51.940;8.432;2023-08-30T04:15:40;9.90;;;5.83;;
20449;SDS011;10384;51.940;8.432;2023-08-30T04:18:06;10.13;;;6.00;;
20449;SDS011;10384;51.940;8.432;2023-08-30T04:20:32;9.53;;;5.93;;
20449;SDS011;10384;51.940;8.432;2023-08-30T04:22:59;10.43;;;5.97;;
20449;SDS011;10384;51.940;8.432;2023-08-30T04:25:28;9.53;;;5.83;;
20449;SDS011;10384;51.940;8.432;2023-08-30T04:27:54;11.50;;;6.83;;
20449;SDS011;10384;51.940;8.432;2023-08-30T04:30:20;8.83;;;5.33;;
20449;SDS011;10384;51.940;8.432;2023-08-30T04:32:46;9.33;;;5.20;;
20449;SDS011;10384;51.940;8.432;2023-08-30T04:35:12;9.87;;;5.53;;
20449;SDS011;10384;51.940;8.432;2023-08-30T04:37:38;9.10;;;5.57;;
20449;SDS011;10384;51.940;8.432;2023-08-30T04:40:07;10.63;;;5.93;;
20449;SDS011;10384;51.940;8.432;2023-08-30T04:42:34;9.60;;;5.77;;
20449;SDS011;10384;51.940;8.432;2023-08-30T04:45:00;7.67;;;4.87;;
20449;SDS011;10384;51.940;8.432;2023-08-30T04:47:28;9.03;;;5.20;;
20449;SDS011;10384;51.940;8.432;2023-08-30T04:49:54;8.80;;;5.40;;
20449;SDS011;10384;51.940;8.432;2023-08-30T04:52:20;9.03;;;5.80;;
20449;SDS011;10384;51.940;8.432;2023-08-30T04:54:46;8.10;;;4.67;;
20449;SDS011;10384;51.940;8.432;2023-08-30T04:57:13;10.57;;;5.73;;
20449;SDS011;10384;51.940;8.432;2023-08-30T04:59:41;7.50;;;5.27;;
20449;SDS011;10384;51.940;8.432;2023-08-30T05:02:07;9.23;;;5.37;;
20449;SDS011;10384;51.940;8.432;2023-08-30T05:04:33;13.67;;;5.63;;
20449;SDS011;10384;51.940;8.432;2023-08-30T05:06:59;9.90;;;5.40;;
20449;SDS011;10384;51.940;8.432;2023-08-30T05:09:25;10.13;;;5.73;;
20449;SDS011;10384;51.940;8.432;2023-08-30T05:11:51;8.97;;;5.37;;
20449;SDS011;10384;51.940;8.432;2023-08-30T05:14:17;10.20;;;5.00;;
20449;SDS011;10384;51.940;8.432;2023-08-30T05:16:43;10.73;;;5.40;;
20449;SDS011;10384;51.940;8.432;2023-08-30T05:19:09;11.10;;;5.90;;
20449;SDS011;10384;51.940;8.432;2023-08-30T05:21:35;10.67;;;5.53;;
20449;SDS011;10384;51.940;8.432;2023-08-30T05:24:01;10.57;;;5.57;;
20449;SDS011;10384;51.940;8.432;2023-08-30T05:26:27;9.57;;;5.30;;
20449;SDS011;10384;51.940;8.432;2023-08-30T05:28:53;9.53;;;5.50;;
20449;SDS011;10384;51.940;8.432;2023-08-30T05:31:19;9.50;;;5.30;;
20449;SDS011;10384;51.940;8.432;2023-08-30T05:33:45;9.27;;;5.27;;
20449;SDS011;10384;51.940;8.432;2023-08-30T05:36:11;10.07;;;5.40;;
20449;SDS011;10384;51.940;8.432;2023-08-30T05:38:37;13.93;;;5.93;;
20449;SDS011;10384;51.940;8.432;2023-08-30T05:41:03;9.70;;;5.73;;
20449;SDS011;10384;51.940;8.432;2023-08-30T05:43:29;12.50;;;5.40;;
20449;SDS011;10384;51.940;8.432;2023-08-30T05:45:55;10.70;;;5.77;;
20449;SDS011;10384;51.940;8.432;2023-08-30T05:48:26;10.37;;;6.07;;
20449;SDS011;10384;51.940;8.432;2023-08-30T05:50:52;12.50;;;6.73;;
20449;SDS011;10384;51.940;8.432;2023-08-30T05:53:18;13.10;;;6.20;;
20449;SDS011;10384;51.940;8.432;2023-08-30T05:55:44;10.80;;;6.60;;
20449;SDS011;10384;51.940;8.432;2023-08-30T05:58:10;10.80;;;5.80;;
20449;SDS011;10384;51.940;8.432;2023-08-30T06:00:36;12.97;;;6.70;;
20449;SDS011;10384;51.940;8.432;2023-08-30T06:03:02;13.17;;;6.33;;
20449;SDS011;10384;51.940;8.432;2023-08-30T06:05:29;12.80;;;7.00;;
20449;SDS011;10384;51.940;8.432;2023-08-30T06:07:55;11.97;;;6.60;;
20449;SDS011;10384;51.940;8.432;2023-08-30T06:10:22;13.10;;;6.17;;
20449;SDS011;10384;51.940;8.432;2023-08-30T06:12:48;12.83;;;6.73;;
20449;SDS011;10384;51.940;8.432;2023-08-30T06:15:14;10.90;;;6.07;;
20449;SDS011;10384;51.940;8.432;2023-08-30T06:17:40;11.47;;;6.20;;
20449;SDS011;10384;51.940;8.432;2023-08-30T06:20:06;14.40;;;6.53;;
20449;SDS011;10384;51.940;8.432;2023-08-30T06:22:32;12.27;;;6.60;;
20449;SDS011;10384;51.940;8.432;2023-08-30T06:24:58;13.37;;;6.77;;
20449;SDS011;10384;51.940;8.432;2023-08-30T06:27:24;12.80;;;7.00;;
20449;SDS011;10384;51.940;8.432;2023-08-30T06:29:50;13.13;;;7.00;;
20449;SDS011;10384;51.940;8.432;2023-08-30T06:32:16;13.63;;;7.00;;
20449;SDS011;10384;51.940;8.432;2023-08-30T06:34:42;12.03;;;7.30;;
20449;SDS011;10384;51.940;8.432;2023-08-30T06:37:08;14.30;;;7.00;;
20449;SDS011;10384;51.940;8.432;2023-08-30T06:39:35;13.47;;;7.33;;
20449;SDS011;10384;51.940;8.432;2023-08-30T06:42:02;12.60;;;6.77;;
20449;SDS011;10384;51.940;8.432;2023-08-30T06:44:28;12.27;;;6.63;;
20449;SDS011;10384;51.940;8.432;2023-08-30T06:46:55;13.23;;;6.93;;
20449;SDS011;10384;51.940;8.432;2023-08-30T06:49:21;15.47;;;7.23;;
20449;SDS011;10384;51.940;8.432;2023-08-30T06:51:47;16.40;;;7.50;;
20449;SDS011;10384;51.940;8.432;2023-08-30T06:54:13;14.37;;;7.00;;
20449;SDS011;10384;51.940;8.432;2023-08-30T06:56:39;13.60;;;6.87;;
20449;SDS011;10384;51.940;8.432;2023-08-30T06:59:05;15.30;;;7.20;;
20449;SDS011;10384;51.940;8.432;2023-08-30T07:01:31;12.27;;;6.50;;
20449;SDS011;10384;51.940;8.432;2023-08-30T07:03:57;16.67;;;8.00;;
20449;SDS011;10384;51.940;8.432;2023-08-30T07:06:23;13.23;;;7.33;;
20449;SDS011;10384;51.940;8.432;2023-08-30T07:08:49;15.97;;;7.87;;
20449;SDS011;10384;51.940;8.432;2023-08-30T07:11:15;15.30;;;7.20;;
20449;SDS011;10384;51.940;8.432;2023-08-30T07:13:41;16.27;;;7.90;;
20449;SDS011;10384;51.940;8.432;2023-08-30T07:16:07;17.37;;;8.07;;
20449;SDS011;10384;51.940;8.432;2023-08-30T07:18:33;14.07;;;7.47;;
20449;SDS011;10384;51.940;8.432;2023-08-30T07:20:59;16.10;;;8.07;;
20449;SDS011;10384;51.940;8.432;2023-08-30T07:23:25;15.83;;;8.60;;
20449;SDS011;10384;51.940;8.432;2023-08-30T07:25:51;15.57;;;7.40;;
20449;SDS011;10384;51.940;8.432;2023-08-30T07:28:17;15.30;;;8.03;;
20449;SDS011;10384;51.940;8.432;2023-08-30T07:30:43;15.60;;;7.93;;
20449;SDS011;10384;51.940;8.432;2023-08-30T07:33:09;15.30;;;8.10;;
20449;SDS011;10384;51.940;8.432;2023-08-30T07:35:35;17.53;;;9.03;;
20449;SDS011;10384;51.940;8.432;2023-08-30T07:38:01;16.63;;;8.37;;
20449;SDS011;10384;51.940;8.432;2023-08-30T07:40:27;19.93;;;9.13;;
20449;SDS011;10384;51.940;8.432;2023-08-30T07:42:54;18.00;;;8.83;;
20449;SDS011;10384;51.940;8.432;2023-08-30T07:45:21;19.90;;;9.60;;
20449;SDS011;10384;51.940;8.432;2023-08-30T07:47:47;19.93;;;9.60;;
20449;SDS011;10384;51.940;8.432;2023-08-30T07:50:13;23.27;;;9.53;;
20449;SDS011;10384;51.940;8.432;2023-08-30T07:52:39;24.30;;;10.70;;
20449;SDS011;10384;51.940;8.432;2023-08-30T07:55:05;18.90;;;9.70;;
20449;SDS011;10384;51.940;8.432;2023-08-30T07:57:31;20.77;;;10.17;;
20449;SDS011;10384;51.940;8.432;2023-08-30T07:59:57;21.20;;;9.50;;
20449;SDS011;10384;51.940;8.432;2023-08-30T08:02:22;24.73;;;10.73;;
20449;SDS011;10384;51.940;8.432;2023-08-30T08:04:48;24.20;;;11.33;;
20449;SDS011;10384;51.940;8.432;2023-08-30T08:07:15;26.73;;;11.70;;
20449;SDS011;10384;51.940;8.432;2023-08-30T08:09:41;23.40;;;11.00;;
20449;SDS011;10384;51.940;8.432;2023-08-30T08:12:07;24.23;;;10.50;;
20449;SDS011;10384;51.940;8.432;2023-08-30T08:14:33;23.27;;;11.23;;
20449;SDS011;10384;51.940;8.432;2023-08-30T08:16:59;24.33;;;10.40;;
20449;SDS011;10384;51.940;8.432;2023-08-30T08:19:25;25.10;;;11.87;;
20449;SDS011;10384;51.940;8.432;2023-08-30T08:21:51;26.30;;;11.83;;
20449;SDS011;10384;51.940;8.432;2023-08-30T08:24:18;28.17;;;11.90;;
20449;SDS011;10384;51.940;8.432;2023-08-30T08:26:44;23.47;;;11.13;;
20449;SDS011;10384;51.940;8.432;2023-08-30T08:29:11;27.23;;;12.13;;
20449;SDS011;10384;51.940;8.432;2023-08-30T08:31:37;27.93;;;12.03;;
20449;SDS011;10384;51.940;8.432;2023-08-30T08:34:10;30.97;;;12.53;;
20449;SDS011;10384;51.940;8.432;2023-08-30T08:36:39;23.83;;;11.07;;
20449;SDS011;10384;51.940;8.432;2023-08-30T08:39:07;26.50;;;12.20;;
20449;SDS011;10384;51.940;8.432;2023-08-30T08:41:43;26.63;;;11.23;;
20449;SDS011;10384;51.940;8.432;2023-08-30T08:44:10;24.50;;;11.67;;
20449;SDS011;10384;51.940;8.432;2023-08-30T08:46:36;29.63;;;12.67;;
20449;SDS011;10384;51.940;8.432;2023-08-30T08:49:16;27.47;;;11.63;;
20449;SDS011;10384;51.940;8.432;2023-08-30T08:51:42;26.53;;;11.77;;
20449;SDS011;10384;51.940;8.432;2023-08-30T08:54:09;22.07;;;10.70;;
20449;SDS011;10384;51.940;8.432;2023-08-30T08:56:35;24.43;;;10.97;;
20449;SDS011;10384;51.940;8.432;2023-08-30T08:59:01;21.27;;;10.93;;
20449;SDS011;10384;51.940;8.432;2023-08-30T09:01:28;23.90;;;10.73;;
20449;SDS011;10384;51.940;8.432;2023-08-30T09:03:54;23.57;;;11.17;;
20449;SDS011;10384;51.940;8.432;2023-08-30T09:06:21;24.23;;;11.00;;
20449;SDS011;10384;51.940;8.432;2023-08-30T09:08:48;28.03;;;10.43;;
20449;SDS011;10384;51.940;8.432;2023-08-30T09:11:14;23.97;;;10.27;;
20449;SDS011;10384;51.940;8.432;2023-08-30T09:13:41;24.53;;;11.27;;
20449;SDS011;10384;51.940;8.432;2023-08-30T09:16:12;20.33;;;10.90;;
20449;SDS011;10384;51.940;8.432;2023-08-30T09:18:38;21.57;;;9.43;;
20449;SDS011;10384;51.940;8.432;2023-08-30T09:21:10;21.87;;;11.70;;
20449;SDS011;10384;51.940;8.432;2023-08-30T09:23:37;20.70;;;10.27;;
20449;SDS011;10384;51.940;8.432;2023-08-30T09:26:03;20.30;;;10.43;;
20449;SDS011;10384;51.940;8.432;2023-08-30T09:28:30;19.20;;;9.53;;
20449;SDS011;10384;51.940;8.432;2023-08-30T09:30:59;24.30;;;10.53;;
20449;SDS011;10384;51.940;8.432;2023-08-30T09:33:31;20.40;;;9.80;;
20449;SDS011;10384;51.940;8.432;2023-08-30T09:35:58;21.00;;;9.97;;
20449;SDS011;10384;51.940;8.432;2023-08-30T09:38:24;22.20;;;9.93;;
20449;SDS011;10384;51.940;8.432;2023-08-30T09:40:50;18.20;;;9.63;;
20449;SDS011;10384;51.940;8.432;2023-08-30T09:43:19;19.80;;;9.00;;
20449;SDS011;10384;51.940;8.432;2023-08-30T09:45:50;18.50;;;9.10;;
20449;SDS011;10384;51.940;8.432;2023-08-30T09:48:20;17.77;;;8.70;;
20449;SDS011;10384;51.940;8.432;2023-08-30T09:50:47;16.13;;;9.07;;
20449;SDS011;10384;51.940;8.432;2023-08-30T09:53:16;14.30;;;8.10;;
20449;SDS011;10384;51.940;8.432;2023-08-30T09:55:43;13.17;;;7.53;;
20449;SDS011;10384;51.940;8.432;2023-08-30T09:58:09;15.70;;;6.90;;
20449;SDS011;10384;51.940;8.432;2023-08-30T10:00:35;13.30;;;6.43;;
20449;SDS011;10384;51.940;8.432;2023-08-30T10:03:01;11.53;;;7.20;;
20449;SDS011;10384;51.940;8.432;2023-08-30T10:05:27;13.30;;;7.37;;
20449;SDS011;10384;51.940;8.432;2023-08-30T10:07:55;13.13;;;6.37;;
20449;SDS011;10384;51.940;8.432;2023-08-30T10:10:22;11.93;;;6.27;;
20449;SDS011;10384;51.940;8.432;2023-08-30T10:12:48;11.17;;;6.17;;
20449;SDS011;10384;51.940;8.432;2023-08-30T10:15:15;12.83;;;5.63;;
20449;SDS011;10384;51.940;8.432;2023-08-30T10:17:43;12.50;;;5.83;;
20449;SDS011;10384;51.940;8.432;2023-08-30T10:20:10;13.37;;;6.20;;
20449;SDS011;10384;51.940;8.432;2023-08-30T10:22:37;11.37;;;6.40;;
20449;SDS011;10384;51.940;8.432;2023-08-30T10:25:05;12.33;;;5.60;;
20449;SDS011;10384;51.940;8.432;2023-08-30T10:27:33;12.93;;;6.10;;
20449;SDS011;10384;51.940;8.432;2023-08-30T10:30:01;8.20;;;4.20;;
20449;SDS011;10384;51.940;8.432;2023-08-30T10:32:28;7.47;;;4.43;;
20449;SDS011;10384;51.940;8.432;2023-08-30T10:34:55;10.53;;;4.50;;
20449;SDS011;10384;51.940;8.432;2023-08-30T10:37:25;9.87;;;4.80;;
20449;SDS011;10384;51.940;8.432;2023-08-30T10:39:52;6.53;;;3.70;;
20449;SDS011;10384;51.940;8.432;2023-08-30T10:42:21;6.73;;;3.23;;
20449;SDS011;10384;51.940;8.432;2023-08-30T10:44:51;10.03;;;4.03;;
20449;SDS011;10384;51.940;8.432;2023-08-30T10:49:46;14.47;;;3.90;;
20449;SDS011;10384;51.940;8.432;2023-08-30T10:52:13;6.33;;;3.83;;
20449;SDS011;10384;51.940;8.432;2023-08-30T10:54:39;5.87;;;3.60;;
20449;SDS011;10384;51.940;8.432;2023-08-30T10:57:12;7.77;;;3.80;;
20449;SDS011;10384;51.940;8.432;2023-08-30T10:59:38;7.30;;;3.40;;
20449;SDS011;10384;51.940;8.432;2023-08-30T11:02:04;7.67;;;3.67;;
20449;SDS011;10384;51.940;8.432;2023-08-30T11:04:30;5.33;;;3.40;;
20449;SDS011;10384;51.940;8.432;2023-08-30T11:06:56;6.23;;;3.40;;
20449;SDS011;10384;51.940;8.432;2023-08-30T11:09:23;5.60;;;3.13;;
20449;SDS011;10384;51.940;8.432;2023-08-30T11:11:49;6.67;;;3.00;;
20449;SDS011;10384;51.940;8.432;2023-08-30T11:14:16;5.30;;;2.77;;
20449;SDS011;10384;51.940;8.432;2023-08-30T11:16:42;4.43;;;2.70;;
20449;SDS011;10384;51.940;8.432;2023-08-30T11:19:08;7.70;;;2.90;;
20449;SDS011;10384;51.940;8.432;2023-08-30T11:21:36;7.17;;;3.43;;
20449;SDS011;10384;51.940;8.432;2023-08-30T11:24:03;6.17;;;2.97;;
20449;SDS011;10384;51.940;8.432;2023-08-30T11:26:29;5.20;;;2.93;;
20449;SDS011;10384;51.940;8.432;2023-08-30T11:28:55;5.03;;;2.77;;
20449;SDS011;10384;51.940;8.432;2023-08-30T11:31:21;6.73;;;2.77;;
20449;SDS011;10384;51.940;8.432;2023-08-30T11:33:54;6.30;;;3.07;;
20449;SDS011;10384;51.940;8.432;2023-08-30T11:36:21;7.17;;;2.90;;
20449;SDS011;10384;51.940;8.432;2023-08-30T11:38:47;6.23;;;2.97;;
20449;SDS011;10384;51.940;8.432;2023-08-30T11:41:13;4.30;;;2.90;;
20449;SDS011;10384;51.940;8.432;2023-08-30T11:43:39;9.87;;;3.20;;
20449;SDS011;10384;51.940;8.432;2023-08-30T11:46:05;5.23;;;2.70;;
20449;SDS011;10384;51.940;8.432;2023-08-30T11:48:31;12.83;;;4.80;;
20449;SDS011;10384;51.940;8.432;2023-08-30T11:50:58;6.20;;;3.30;;
20449;SDS011;10384;51.940;8.432;2023-08-30T11:53:24;5.83;;;3.13;;
20449;SDS011;10384;51.940;8.432;2023-08-30T11:55:50;4.90;;;2.90;;
20449;SDS011;10384;51.940;8.432;2023-08-30T11:58:17;5.10;;;3.30;;
20449;SDS011;10384;51.940;8.432;2023-08-30T12:00:44;5.73;;;3.00;;
20449;SDS011;10384;51.940;8.432;2023-08-30T12:03:12;5.17;;;3.37;;
20449;SDS011;10384;51.940;8.432;2023-08-30T12:05:43;6.93;;;3.90;;
20449;SDS011;10384;51.940;8.432;2023-08-30T12:08:17;5.73;;;2.90;;
20449;SDS011;10384;51.940;8.432;2023-08-30T12:10:43;6.03;;;3.00;;
20449;SDS011;10384;51.940;8.432;2023-08-30T12:13:19;6.40;;;3.40;;
20449;SDS011;10384;51.940;8.432;2023-08-30T12:15:46;5.67;;;3.47;;
20449;SDS011;10384;51.940;8.432;2023-08-30T12:18:12;6.53;;;3.20;;
20449;SDS011;10384;51.940;8.432;2023-08-30T12:20:38;5.57;;;3.30;;
20449;SDS011;10384;51.940;8.432;2023-08-30T12:23:04;5.90;;;3.70;;
20449;SDS011;10384;51.940;8.432;2023-08-30T12:25:30;6.67;;;3.63;;
20449;SDS011;10384;51.940;8.432;2023-08-30T12:27:57;6.57;;;3.50;;
20449;SDS011;10384;51.940;8.432;2023-08-30T12:30:23;6.83;;;3.73;;
20449;SDS011;10384;51.940;8.432;2023-08-30T12:32:49;7.37;;;3.93;;
20449;SDS011;10384;51.940;8.432;2023-08-30T12:35:15;7.27;;;4.00;;
20449;SDS011;10384;51.940;8.432;2023-08-30T12:37:41;6.00;;;4.00;;
20449;SDS011;10384;51.940;8.432;2023-08-30T12:40:07;8.83;;;4.50;;
20449;SDS011;10384;51.940;8.432;2023-08-30T12:42:33;8.63;;;4.67;;
20449;SDS011;10384;51.940;8.432;2023-08-30T12:44:59;12.23;;;5.40;;
20449;SDS011;10384;51.940;8.432;2023-08-30T12:47:25;7.27;;;4.30;;
20449;SDS011;10384;51.940;8.432;2023-08-30T12:49:51;10.00;;;3.97;;
20449;SDS011;10384;51.940;8.432;2023-08-30T12:52:17;7.17;;;3.90;;
20449;SDS011;10384;51.940;8.432;2023-08-30T12:54:43;9.40;;;4.73;;
20449;SDS011;10384;51.940;8.432;2023-08-30T12:57:09;6.83;;;4.23;;
20449;SDS011;10384;51.940;8.432;2023-08-30T12:59:36;6.67;;;4.10;;
20449;SDS011;10384;51.940;8.432;2023-08-30T13:02:02;8.43;;;4.60;;
20449;SDS011;10384;51.940;8.432;2023-08-30T13:04:28;9.20;;;4.17;;
20449;SDS011;10384;51.940;8.432;2023-08-30T13:06:54;9.10;;;4.47;;
20449;SDS011;10384;51.940;8.432;2023-08-30T13:09:20;9.30;;;4.90;;
20449;SDS011;10384;51.940;8.432;2023-08-30T13:11:46;8.03;;;5.30;;
20449;SDS011;10384;51.940;8.432;2023-08-30T13:14:12;9.03;;;5.07;;
20449;SDS011;10384;51.940;8.432;2023-08-30T13:16:38;11.23;;;6.53;;
20449;SDS011;10384;51.940;8.432;2023-08-30T13:19:04;8.63;;;5.50;;
20449;SDS011;10384;51.940;8.432;2023-08-30T13:21:30;11.73;;;5.73;;
20449;SDS011;10384;51.940;8.432;2023-08-30T13:23:56;10.10;;;5.83;;
20449;SDS011;10384;51.940;8.432;2023-08-30T13:26:22;12.23;;;5.83;;
20449;SDS011;10384;51.940;8.432;2023-08-30T13:28:48;9.30;;;6.07;;
20449;SDS011;10384;51.940;8.432;2023-08-30T13:31:14;10.30;;;6.50;;
20449;SDS011;10384;51.940;8.432;2023-08-30T13:33:40;9.77;;;6.13;;
20449;SDS011;10384;51.940;8.432;2023-08-30T13:36:06;12.97;;;6.70;;
20449;SDS011;10384;51.940;8.432;2023-08-30T13:38:32;11.67;;;6.80;;
20449;SDS011;10384;51.940;8.432;2023-08-30T13:40:58;13.00;;;7.10;;
20449;SDS011;10384;51.940;8.432;2023-08-30T13:43:25;10.93;;;6.77;;
20449;SDS011;10384;51.940;8.432;2023-08-30T13:45:56;11.47;;;6.80;;
20449;SDS011;10384;51.940;8.432;2023-08-30T13:48:22;12.03;;;6.90;;
20449;SDS011;10384;51.940;8.432;2023-08-30T13:50:49;12.00;;;6.73;;
20449;SDS011;10384;51.940;8.432;2023-08-30T13:53:15;14.57;;;7.33;;
20449;SDS011;10384;51.940;8.432;2023-08-30T13:55:45;13.13;;;7.10;;
20449;SDS011;10384;51.940;8.432;2023-08-30T13:58:13;10.40;;;6.63;;
20449;SDS011;10384;51.940;8.432;2023-08-30T14:00:39;10.87;;;7.20;;
20449;SDS011;10384;51.940;8.432;2023-08-30T14:03:05;13.17;;;7.10;;
20449;SDS011;10384;51.940;8.432;2023-08-30T14:05:32;10.57;;;6.37;;
20449;SDS011;10384;51.940;8.432;2023-08-30T14:07:58;8.77;;;6.17;;
20449;SDS011;10384;51.940;8.432;2023-08-30T14:10:24;10.97;;;6.40;;
20449;SDS011;10384;51.940;8.432;2023-08-30T14:12:50;10.80;;;6.83;;
20449;SDS011;10384;51.940;8.432;2023-08-30T14:15:16;11.77;;;6.67;;
20449;SDS011;10384;51.940;8.432;2023-08-30T14:17:43;9.20;;;6.20;;
20449;SDS011;10384;51.940;8.432;2023-08-30T14:20:09;12.50;;;5.93;;
20449;SDS011;10384;51.940;8.432;2023-08-30T14:22:35;10.13;;;6.03;;
20449;SDS011;10384;51.940;8.432;2023-08-30T14:25:02;7.50;;;5.10;;
20449;SDS011;10384;51.940;8.432;2023-08-30T14:27:29;13.43;;;6.50;;
20449;SDS011;10384;51.940;8.432;2023-08-30T14:29:55;16.53;;;7.37;;
20449;SDS011;10384;51.940;8.432;2023-08-30T14:32:21;22.87;;;9.00;;
20449;SDS011;10384;51.940;8.432;2023-08-30T14:34:47;18.50;;;8.50;;
20449;SDS011;10384;51.940;8.432;2023-08-30T14:37:13;24.77;;;9.40;;
20449;SDS011;10384;51.940;8.432;2023-08-30T14:39:39;23.57;;;9.20;;